createdAt,value
2023-02-18T00:00:20.023Z,2.40
2023-02-18T00:01:24.959Z,2.10
2023-02-18T00:02:27.243Z,2.65
2023-02-18T00:03:31.880Z,2.40
2023-02-18T00:04:35.285Z,2.92
2023-02-18T00:05:38.381Z,2.80
2023-02-18T00:06:40.519Z,2.30
2023-02-18T00:07:43.577Z,2.67
2023-02-18T00:08:46.485Z,2.65
2023-02-18T00:09:49.503Z,2.15
2023-02-18T00:10:51.610Z,2.22
2023-02-18T00:11:54.599Z,2.40
2023-02-18T00:12:56.702Z,2.67
2023-02-18T00:14:01.695Z,2.85
2023-02-18T00:15:04.485Z,3.35
2023-02-18T00:16:10.060Z,2.55
2023-02-18T00:17:12.453Z,2.63
2023-02-18T00:18:15.678Z,2.45
2023-02-18T00:19:19.828Z,2.75
2023-02-18T00:20:24.235Z,2.72
2023-02-18T00:21:26.711Z,2.20
2023-02-18T00:22:30.234Z,2.65
2023-02-18T00:23:32.297Z,2.83
2023-02-18T00:24:35.306Z,2.42
2023-02-18T00:25:37.443Z,2.20
2023-02-18T00:26:40.532Z,3.00
2023-02-18T00:27:42.634Z,2.70
2023-02-18T00:28:48.528Z,2.78
2023-02-18T00:29:50.578Z,2.50
2023-02-18T00:30:53.624Z,2.80
2023-02-18T00:31:55.842Z,3.00
2023-02-18T00:32:59.067Z,2.50
2023-02-18T00:34:02.851Z,2.40
2023-02-18T00:35:06.190Z,2.42
2023-02-18T00:36:12.942Z,2.60
2023-02-18T00:37:16.001Z,2.10
2023-02-18T00:38:18.062Z,2.70
2023-02-18T00:39:21.113Z,2.38
2023-02-18T00:40:23.142Z,2.38
2023-02-18T00:41:27.909Z,2.50
2023-02-18T00:42:30.929Z,2.17
2023-02-18T00:43:33.048Z,1.85
2023-02-18T00:44:36.111Z,2.60
2023-02-18T00:45:38.358Z,2.35
2023-02-18T00:46:41.464Z,2.00
2023-02-18T00:47:43.576Z,2.83
2023-02-18T00:48:47.360Z,2.30
2023-02-18T00:49:49.361Z,2.33
2023-02-18T00:50:52.398Z,2.63
2023-02-18T00:51:57.144Z,2.10
2023-02-18T00:52:59.174Z,2.35
2023-02-18T00:54:02.505Z,2.08
2023-02-18T00:55:05.059Z,2.38
2023-02-18T00:56:09.712Z,2.25
2023-02-18T00:57:11.965Z,2.20
2023-02-18T00:58:15.388Z,1.77
2023-02-18T00:59:18.024Z,2.65
2023-02-18T01:00:21.725Z,2.20
2023-02-18T01:01:24.467Z,2.30
2023-02-18T01:02:27.530Z,2.35
2023-02-18T01:03:29.601Z,2.08
2023-02-18T01:04:32.748Z,2.30
2023-02-18T01:05:35.028Z,2.20
2023-02-18T01:06:38.222Z,1.50
2023-02-18T01:07:41.613Z,2.13
2023-02-18T01:08:44.627Z,2.03
2023-02-18T01:09:46.600Z,2.17
2023-02-18T01:10:53.757Z,2.03
2023-02-18T01:11:55.841Z,2.15
2023-02-18T01:12:58.904Z,2.17
2023-02-18T01:14:00.946Z,1.95
2023-02-18T01:15:07.412Z,2.50
2023-02-18T01:16:10.524Z,2.88
2023-02-18T01:17:13.787Z,2.15
2023-02-18T01:18:16.091Z,1.60
2023-02-18T01:19:19.022Z,2.58
2023-02-18T01:20:21.410Z,1.90
2023-02-18T01:21:24.424Z,2.45
2023-02-18T01:22:29.560Z,2.67
2023-02-18T01:23:34.097Z,2.10
2023-02-18T01:24:36.154Z,2.55
2023-02-18T01:25:39.203Z,2.50
2023-02-18T01:26:43.540Z,3.55
2023-02-18T01:27:46.491Z,2.17
2023-02-18T01:28:48.565Z,2.53
2023-02-18T01:29:51.533Z,2.72
2023-02-18T01:30:54.158Z,2.90
2023-02-18T01:31:57.410Z,2.30
2023-02-18T01:33:00.078Z,2.58
2023-02-18T01:34:02.999Z,2.58
2023-02-18T01:35:06.265Z,2.75
2023-02-18T01:36:10.871Z,2.53
2023-02-18T01:37:14.234Z,2.50
2023-02-18T01:38:17.405Z,2.55
2023-02-18T01:39:21.004Z,2.47
2023-02-18T01:40:28.137Z,2.38
2023-02-18T01:41:31.158Z,2.50
2023-02-18T01:42:34.251Z,2.97
2023-02-18T01:43:36.896Z,2.88
2023-02-18T01:44:40.055Z,2.90
2023-02-18T01:45:59.491Z,2.53
2023-02-18T01:47:02.591Z,2.80
2023-02-18T01:48:07.211Z,2.50
2023-02-18T01:49:11.990Z,2.75
2023-02-18T01:50:14.114Z,2.92
2023-02-18T01:51:21.224Z,2.67
2023-02-18T01:52:27.675Z,2.67
2023-02-18T01:53:35.813Z,2.90
2023-02-18T01:54:44.056Z,2.47
2023-02-18T01:55:47.760Z,2.65
2023-02-18T01:56:56.304Z,2.80
2023-02-18T01:57:58.651Z,2.70
2023-02-18T01:59:10.825Z,2.85
2023-02-18T02:00:16.038Z,2.53
2023-02-18T02:01:19.228Z,2.83
2023-02-18T02:02:26.491Z,3.05
2023-02-18T02:03:29.760Z,2.70
2023-02-18T02:04:31.844Z,2.75
2023-02-18T02:05:35.597Z,2.65
2023-02-18T02:06:38.628Z,3.05
2023-02-18T02:07:41.580Z,2.90
2023-02-18T02:08:46.281Z,2.95
2023-02-18T02:09:52.317Z,2.70
2023-02-18T02:11:09.505Z,2.90
2023-02-18T02:12:34.567Z,2.80
2023-02-18T02:13:49.163Z,2.35
2023-02-18T02:15:27.602Z,2.70
2023-02-18T02:16:39.571Z,2.90
2023-02-18T02:17:50.399Z,2.70
2023-02-18T02:19:05.701Z,2.40
2023-02-18T02:20:43.540Z,2.50
2023-02-18T02:22:21.653Z,2.42
2023-02-18T02:23:50.035Z,2.85
2023-02-18T02:25:09.122Z,2.63
2023-02-18T02:27:00.186Z,2.40
2023-02-18T02:28:33.514Z,2.10
2023-02-18T02:30:04.156Z,2.60
2023-02-18T02:31:37.933Z,2.45
2023-02-18T02:33:07.944Z,2.60
2023-02-18T02:34:29.302Z,2.38
2023-02-18T02:35:35.857Z,2.70
2023-02-18T02:36:41.507Z,2.13
2023-02-18T02:37:50.626Z,2.30
2023-02-18T02:39:01.419Z,2.00
2023-02-18T02:40:16.868Z,1.90
2023-02-18T02:41:28.332Z,2.08
2023-02-18T02:42:41.883Z,2.47
2023-02-18T02:43:54.014Z,2.05
2023-02-18T02:45:03.702Z,2.45
2023-02-18T02:46:12.311Z,1.90
2023-02-18T02:47:21.604Z,2.13
2023-02-18T02:48:36.902Z,2.30
2023-02-18T02:49:47.869Z,2.20
2023-02-18T02:50:57.879Z,2.17
2023-02-18T02:52:04.974Z,1.95
2023-02-18T02:53:15.682Z,2.30
2023-02-18T02:54:21.469Z,2.28
2023-02-18T02:55:24.711Z,2.55
2023-02-18T02:56:29.372Z,1.50
2023-02-18T02:57:51.122Z,1.77
2023-02-18T02:59:06.157Z,2.10
2023-02-18T03:00:17.238Z,1.80
2023-02-18T03:01:33.746Z,1.60
2023-02-18T03:02:47.184Z,1.70
2023-02-18T03:04:16.730Z,1.67
2023-02-18T03:05:33.652Z,1.88
2023-02-18T03:07:01.168Z,1.60
2023-02-18T03:08:16.779Z,1.90
2023-02-18T03:09:27.264Z,1.80
2023-02-18T03:10:52.146Z,1.70
2023-02-18T03:12:03.067Z,1.92
2023-02-18T03:13:17.542Z,2.13
2023-02-18T03:14:27.716Z,1.90
2023-02-18T03:15:43.492Z,1.95
2023-02-18T03:16:49.850Z,1.52
2023-02-18T03:18:00.179Z,1.90
2023-02-18T03:19:10.225Z,1.80
2023-02-18T03:20:21.256Z,1.55
2023-02-18T03:21:27.887Z,1.90
2023-02-18T03:22:33.228Z,1.33
2023-02-18T03:23:42.085Z,1.50
2023-02-18T03:24:48.020Z,1.20
2023-02-18T03:25:50.936Z,1.50
2023-02-18T03:27:00.260Z,1.70
2023-02-18T03:28:07.313Z,2.00
2023-02-18T03:29:11.952Z,1.50
2023-02-18T03:30:18.043Z,2.13
2023-02-18T03:31:23.502Z,1.60
2023-02-18T03:32:27.682Z,1.45
2023-02-18T03:33:36.579Z,1.83
2023-02-18T03:34:42.625Z,1.60
2023-02-18T03:35:46.985Z,1.13
2023-02-18T03:36:52.707Z,1.80
2023-02-18T03:38:01.141Z,1.60
2023-02-18T03:39:08.721Z,1.50
2023-02-18T03:40:13.269Z,1.70
2023-02-18T03:41:15.606Z,1.60
2023-02-18T03:42:19.542Z,2.00
2023-02-18T03:43:21.573Z,1.35
2023-02-18T03:44:26.267Z,1.45
2023-02-18T03:45:28.462Z,1.90
2023-02-18T03:46:32.937Z,1.88
2023-02-18T03:47:35.044Z,1.65
2023-02-18T03:48:38.040Z,1.55
2023-02-18T03:49:40.013Z,1.40
2023-02-18T03:50:43.019Z,1.40
2023-02-18T03:51:45.151Z,1.60
2023-02-18T03:52:50.824Z,1.65
2023-02-18T03:53:52.860Z,1.60
2023-02-18T03:54:55.835Z,1.52
2023-02-18T03:55:57.844Z,1.88
2023-02-18T03:57:00.836Z,1.38
2023-02-18T03:58:02.863Z,1.40
2023-02-18T03:59:05.850Z,1.33
2023-02-18T04:00:09.404Z,1.55
2023-02-18T04:01:18.661Z,1.60
2023-02-18T04:02:20.658Z,1.73
2023-02-18T04:03:23.868Z,1.90
2023-02-18T04:04:25.912Z,1.50
2023-02-18T04:05:29.287Z,1.50
2023-02-18T04:06:31.440Z,1.55
2023-02-18T04:07:34.912Z,1.60
2023-02-18T04:08:38.422Z,1.65
2023-02-18T04:09:41.675Z,1.75
2023-02-18T04:10:43.721Z,1.80
2023-02-18T04:11:46.787Z,1.50
2023-02-18T04:12:48.841Z,1.58
2023-02-18T04:13:51.940Z,1.40
2023-02-18T04:14:54.134Z,1.88
2023-02-18T04:15:57.155Z,1.70
2023-02-18T04:16:59.257Z,1.75
2023-02-18T04:18:02.293Z,2.00
2023-02-18T04:19:04.440Z,1.83
2023-02-18T04:20:08.949Z,2.00
2023-02-18T04:21:11.083Z,1.70
2023-02-18T04:22:14.312Z,2.10
2023-02-18T04:23:16.319Z,1.90
2023-02-18T04:24:20.730Z,2.00
2023-02-18T04:25:22.824Z,1.80
2023-02-18T04:26:26.215Z,1.70
2023-02-18T04:27:28.283Z,2.00
2023-02-18T04:28:31.514Z,2.00
2023-02-18T04:29:33.556Z,1.85
2023-02-18T04:30:36.813Z,2.00
2023-02-18T04:31:38.987Z,1.83
2023-02-18T04:32:42.263Z,1.80
2023-02-18T04:33:44.302Z,2.00
2023-02-18T04:34:47.535Z,1.90
2023-02-18T04:35:49.572Z,1.90
2023-02-18T04:36:52.728Z,2.00
2023-02-18T04:37:55.788Z,2.35
2023-02-18T04:38:57.876Z,1.73
2023-02-18T04:40:02.357Z,2.03
2023-02-18T04:41:04.730Z,1.60
2023-02-18T04:42:10.326Z,1.80
2023-02-18T04:43:12.496Z,2.13
2023-02-18T04:44:15.576Z,1.75
2023-02-18T04:45:17.722Z,2.17
2023-02-18T04:46:20.899Z,1.70
2023-02-18T04:47:23.343Z,1.60
2023-02-18T04:48:26.334Z,1.77
2023-02-18T04:49:28.369Z,1.65
2023-02-18T04:50:31.325Z,2.35
2023-02-18T04:51:33.388Z,1.85
2023-02-18T04:52:36.435Z,1.60
2023-02-18T04:53:38.456Z,1.60
2023-02-18T04:54:41.477Z,1.85
2023-02-18T04:55:49.802Z,1.50
2023-02-18T04:56:52.882Z,1.60
2023-02-18T04:57:54.881Z,1.90
2023-02-18T04:58:57.842Z,2.10
2023-02-18T04:59:59.961Z,1.67
2023-02-18T05:01:04.634Z,1.80
2023-02-18T05:02:07.044Z,1.80
2023-02-18T05:03:10.125Z,1.60
2023-02-18T05:04:12.171Z,1.80
2023-02-18T05:05:16.038Z,1.50
2023-02-18T05:06:18.047Z,1.90
2023-02-18T05:07:21.045Z,1.60
2023-02-18T05:08:23.429Z,1.60
2023-02-18T05:09:26.395Z,2.00
2023-02-18T05:10:28.449Z,1.70
2023-02-18T05:11:32.867Z,1.70
2023-02-18T05:12:35.107Z,1.75
2023-02-18T05:13:38.238Z,1.55
2023-02-18T05:14:40.409Z,1.73
2023-02-18T05:15:43.607Z,1.65
2023-02-18T05:16:45.606Z,1.60
2023-02-18T05:17:48.577Z,1.40
2023-02-18T05:18:50.561Z,1.70
2023-02-18T05:19:53.719Z,1.45
2023-02-18T05:20:55.785Z,1.88
2023-02-18T05:21:58.756Z,1.50
2023-02-18T05:23:00.896Z,1.40
2023-02-18T05:24:03.954Z,1.15
2023-02-18T05:25:06.989Z,1.10
2023-02-18T05:26:10.455Z,1.20
2023-02-18T05:27:14.026Z,1.13
2023-02-18T05:28:18.010Z,1.33
2023-02-18T05:29:20.034Z,1.42
2023-02-18T05:30:23.141Z,1.45
2023-02-18T05:31:25.246Z,1.40
2023-02-18T05:32:28.370Z,1.30
2023-02-18T05:33:30.429Z,1.10
2023-02-18T05:34:33.538Z,1.60
2023-02-18T05:35:35.574Z,1.08
2023-02-18T05:36:38.634Z,1.27
2023-02-18T05:37:40.697Z,1.23
2023-02-18T05:38:43.909Z,1.10
2023-02-18T05:39:45.964Z,1.10
2023-02-18T05:40:49.468Z,1.17
2023-02-18T05:41:51.581Z,1.20
2023-02-18T05:42:56.031Z,1.20
2023-02-18T05:44:16.215Z,1.00
2023-02-18T05:45:19.492Z,0.90
2023-02-18T05:46:21.792Z,0.98
2023-02-18T05:47:24.783Z,0.85
2023-02-18T05:48:26.832Z,1.20
2023-02-18T05:49:30.624Z,1.00
2023-02-18T05:50:32.947Z,0.80
2023-02-18T05:51:35.922Z,1.02
2023-02-18T05:52:38.000Z,0.85
2023-02-18T05:53:41.354Z,1.00
2023-02-18T05:54:44.735Z,0.80
2023-02-18T05:55:47.943Z,0.93
2023-02-18T05:56:50.000Z,1.10
2023-02-18T05:57:53.177Z,0.88
2023-02-18T05:58:56.713Z,0.70
2023-02-18T06:00:00.271Z,0.90
2023-02-18T06:01:02.448Z,0.80
2023-02-18T06:02:05.435Z,0.80
2023-02-18T06:03:07.478Z,0.70
2023-02-18T06:04:11.284Z,0.90
2023-02-18T06:05:13.278Z,0.70
2023-02-18T06:06:16.375Z,0.73
2023-02-18T06:07:20.496Z,0.80
2023-02-18T06:08:23.532Z,0.80
2023-02-18T06:09:25.612Z,0.70
2023-02-18T06:10:28.595Z,0.90
2023-02-18T06:11:30.599Z,0.95
2023-02-18T06:12:33.763Z,0.98
2023-02-18T06:13:35.833Z,0.80
2023-02-18T06:14:42.209Z,0.70
2023-02-18T06:15:44.420Z,1.05
2023-02-18T06:16:47.540Z,1.40
2023-02-18T06:17:49.559Z,0.75
2023-02-18T06:18:52.580Z,0.80
2023-02-18T06:19:54.604Z,0.93
2023-02-18T06:20:57.614Z,0.88
2023-02-18T06:21:59.662Z,0.80
2023-02-18T06:23:02.675Z,0.80
2023-02-18T06:24:05.989Z,0.80
2023-02-18T06:25:08.405Z,0.80
2023-02-18T06:26:11.478Z,1.10
2023-02-18T06:27:13.498Z,0.98
2023-02-18T06:28:16.583Z,0.90
2023-02-18T06:29:18.687Z,0.80
2023-02-18T06:30:24.317Z,0.90
2023-02-18T06:31:26.852Z,0.85
2023-02-18T06:32:29.859Z,0.85
2023-02-18T06:33:31.906Z,1.00
2023-02-18T06:34:34.874Z,0.90
2023-02-18T06:35:37.070Z,0.70
2023-02-18T06:36:40.334Z,0.90
2023-02-18T06:37:42.334Z,0.70
2023-02-18T06:38:46.634Z,0.70
2023-02-18T06:39:48.667Z,0.65
2023-02-18T06:40:52.135Z,0.80
2023-02-18T06:41:54.140Z,0.85
2023-02-18T06:42:57.096Z,0.80
2023-02-18T06:43:59.137Z,0.70
2023-02-18T06:45:02.332Z,0.60
2023-02-18T06:46:06.488Z,0.75
2023-02-18T06:47:09.748Z,0.80
2023-02-18T06:48:11.965Z,0.70
2023-02-18T06:49:15.034Z,0.82
2023-02-18T06:50:17.418Z,0.70
2023-02-18T06:51:20.570Z,0.60
2023-02-18T06:52:22.685Z,0.70
2023-02-18T06:53:25.853Z,0.70
2023-02-18T06:54:27.894Z,0.70
2023-02-18T06:55:30.959Z,0.68
2023-02-18T06:56:33.072Z,0.68
2023-02-18T06:57:36.581Z,0.63
2023-02-18T06:58:38.791Z,0.90
2023-02-18T06:59:41.897Z,0.70
2023-02-18T07:00:44.247Z,0.70
2023-02-18T07:01:48.717Z,0.77
2023-02-18T07:02:50.981Z,0.80
2023-02-18T07:03:54.297Z,0.80
2023-02-18T07:04:56.424Z,1.10
2023-02-18T07:05:59.909Z,0.75
2023-02-18T07:07:02.057Z,0.85
2023-02-18T07:08:05.515Z,0.70
2023-02-18T07:09:07.622Z,0.80
2023-02-18T07:10:11.515Z,0.80
2023-02-18T07:11:13.633Z,1.08
2023-02-18T07:12:16.807Z,0.80
2023-02-18T07:13:18.879Z,0.90
2023-02-18T07:14:21.931Z,0.80
2023-02-18T07:15:24.318Z,0.85
2023-02-18T07:16:27.532Z,0.90
2023-02-18T07:17:31.072Z,0.80
2023-02-18T07:18:34.104Z,0.90
2023-02-18T07:19:36.338Z,0.82
2023-02-18T07:20:39.302Z,0.70
2023-02-18T07:21:41.315Z,0.60
2023-02-18T07:22:44.312Z,0.80
2023-02-18T07:23:46.432Z,0.70
2023-02-18T07:24:52.513Z,0.60
2023-02-18T07:26:03.653Z,0.63
2023-02-18T07:27:06.597Z,0.70
2023-02-18T07:28:08.651Z,0.88
2023-02-18T07:29:11.747Z,0.68
2023-02-18T07:30:14.426Z,0.60
2023-02-18T07:31:17.719Z,0.65
2023-02-18T07:32:20.176Z,0.60
2023-02-18T07:33:24.758Z,0.70
2023-02-18T07:34:26.762Z,0.80
2023-02-18T07:35:29.827Z,0.60
2023-02-18T07:36:31.904Z,0.60
2023-02-18T07:37:35.044Z,0.60
2023-02-18T07:38:37.113Z,0.60
2023-02-18T07:39:42.495Z,0.70
2023-02-18T07:40:45.613Z,0.85
2023-02-18T07:41:48.913Z,0.60
2023-02-18T07:42:51.561Z,0.60
2023-02-18T07:43:55.601Z,0.60
2023-02-18T07:44:57.825Z,0.60
2023-02-18T07:46:00.939Z,0.70
2023-02-18T07:47:03.510Z,0.70
2023-02-18T07:48:06.672Z,0.60
2023-02-18T07:49:10.374Z,0.80
2023-02-18T07:50:13.586Z,0.65
2023-02-18T07:51:15.698Z,0.80
2023-02-18T07:52:18.769Z,1.05
2023-02-18T07:53:21.407Z,0.70
2023-02-18T07:54:24.458Z,0.70
2023-02-18T07:55:47.618Z,0.82
2023-02-18T07:56:50.199Z,0.65
2023-02-18T07:58:01.074Z,0.80
2023-02-18T07:59:03.757Z,1.13
2023-02-18T08:00:08.140Z,0.52
2023-02-18T08:01:15.413Z,0.80
2023-02-18T08:02:21.864Z,0.80
2023-02-18T08:03:26.034Z,0.90
2023-02-18T08:04:30.560Z,0.80
2023-02-18T08:05:32.632Z,1.88
2023-02-18T08:06:38.416Z,0.98
2023-02-18T08:07:40.765Z,0.93
2023-02-18T08:08:44.030Z,0.90
2023-02-18T08:09:46.388Z,0.70
2023-02-18T08:10:50.127Z,0.73
2023-02-18T08:11:52.475Z,0.80
2023-02-18T08:12:55.733Z,0.90
2023-02-18T08:13:58.589Z,0.90
2023-02-18T08:15:01.701Z,1.00
2023-02-18T08:16:03.961Z,0.88
2023-02-18T08:17:07.027Z,0.82
2023-02-18T08:18:14.078Z,1.05
2023-02-18T08:19:17.148Z,0.93
2023-02-18T08:20:20.828Z,0.77
2023-02-18T08:21:25.618Z,0.80
2023-02-18T08:22:28.676Z,0.90
2023-02-18T08:23:31.732Z,0.75
2023-02-18T08:24:34.795Z,1.00
2023-02-18T08:25:37.171Z,0.80
2023-02-18T08:26:48.696Z,0.70
2023-02-18T08:28:01.301Z,0.75
2023-02-18T08:29:04.641Z,0.80
2023-02-18T08:30:08.041Z,0.95
2023-02-18T08:31:18.195Z,0.80
2023-02-18T08:32:20.330Z,0.80
2023-02-18T08:33:24.387Z,1.50
2023-02-18T08:34:26.509Z,1.00
2023-02-18T08:35:30.972Z,1.00
2023-02-18T08:36:34.011Z,0.90
2023-02-18T08:37:53.196Z,1.00
2023-02-18T08:38:57.783Z,0.90
2023-02-18T08:40:01.947Z,0.88
2023-02-18T08:41:07.255Z,1.30
2023-02-18T08:42:10.629Z,0.95
2023-02-18T08:43:13.675Z,0.80
2023-02-18T08:44:16.716Z,1.00
2023-02-18T08:45:18.945Z,1.05
2023-02-18T08:46:24.981Z,1.00
2023-02-18T08:48:17.854Z,0.85
2023-02-18T08:48:52.345Z,0.95
2023-02-18T08:49:54.783Z,1.00
2023-02-18T08:50:59.776Z,0.80
2023-02-18T08:52:02.696Z,0.80
2023-02-18T08:53:05.527Z,0.80
2023-02-18T08:54:08.546Z,0.93
2023-02-18T08:55:10.791Z,0.82
2023-02-18T08:56:14.592Z,0.90
2023-02-18T08:57:16.624Z,0.90
2023-02-18T08:58:19.653Z,0.80
2023-02-18T08:59:22.609Z,1.15
2023-02-18T09:00:24.934Z,0.95
2023-02-18T09:01:28.285Z,1.13
2023-02-18T09:02:31.357Z,1.20
2023-02-18T09:03:34.019Z,0.90
2023-02-18T09:04:37.012Z,1.00
2023-02-18T09:05:39.840Z,0.90
2023-02-18T09:06:44.228Z,1.00
2023-02-18T09:07:46.238Z,1.02
2023-02-18T09:08:49.297Z,1.13
2023-02-18T09:09:51.336Z,1.08
2023-02-18T09:10:56.841Z,1.00
2023-02-18T09:11:59.033Z,1.10
2023-02-18T09:13:02.124Z,0.90
2023-02-18T09:14:04.360Z,0.98
2023-02-18T09:15:08.012Z,0.82
2023-02-18T09:16:14.430Z,1.20
2023-02-18T09:17:16.475Z,1.00
2023-02-18T09:18:19.473Z,1.20
2023-02-18T09:19:21.474Z,1.10
2023-02-18T09:20:24.488Z,1.10
2023-02-18T09:21:27.549Z,1.00
2023-02-18T09:22:32.645Z,1.00
2023-02-18T09:23:36.606Z,1.00
2023-02-18T09:24:39.612Z,1.17
2023-02-18T09:25:42.653Z,0.98
2023-02-18T09:26:45.765Z,0.82
2023-02-18T09:27:47.828Z,1.10
2023-02-18T09:28:51.536Z,1.10
2023-02-18T09:29:53.727Z,1.08
2023-02-18T09:30:57.226Z,1.20
2023-02-18T09:32:00.858Z,1.10
2023-02-18T09:33:03.928Z,1.30
2023-02-18T09:34:06.080Z,1.10
2023-02-18T09:35:09.706Z,1.27
2023-02-18T09:36:12.162Z,1.35
2023-02-18T09:37:15.643Z,1.60
2023-02-18T09:38:19.137Z,1.70
2023-02-18T09:39:22.358Z,1.40
2023-02-18T09:40:28.338Z,1.30
2023-02-18T09:41:38.820Z,1.17
2023-02-18T09:42:41.207Z,1.80
2023-02-18T09:43:49.488Z,1.00
2023-02-18T09:44:54.613Z,1.23
2023-02-18T09:45:59.357Z,1.10
2023-02-18T09:47:06.322Z,1.33
2023-02-18T09:48:10.290Z,1.35
2023-02-18T09:49:18.529Z,1.17
2023-02-18T09:50:23.593Z,1.55
2023-02-18T09:51:26.598Z,1.20
2023-02-18T09:52:31.853Z,0.75
2023-02-18T09:53:36.370Z,0.95
2023-02-18T09:54:38.622Z,1.67
2023-02-18T09:55:42.107Z,1.23
2023-02-18T09:56:45.531Z,1.00
2023-02-18T09:57:51.431Z,1.10
2023-02-18T09:58:55.168Z,1.25
2023-02-18T10:00:04.946Z,1.30
2023-02-18T10:01:21.394Z,1.42
2023-02-18T10:02:25.684Z,1.15
2023-02-18T10:03:29.400Z,0.90
2023-02-18T10:04:38.457Z,0.90
2023-02-18T10:05:47.580Z,0.93
2023-02-18T10:06:53.373Z,1.55
2023-02-18T10:08:00.803Z,1.45
2023-02-18T10:09:11.177Z,2.20
2023-02-18T10:10:21.482Z,1.10
2023-02-18T10:11:39.128Z,1.23
2023-02-18T10:12:41.729Z,1.00
2023-02-18T10:13:45.934Z,1.00
2023-02-18T10:14:51.175Z,0.90
2023-02-18T10:15:54.668Z,1.38
2023-02-18T10:16:58.096Z,1.05
2023-02-18T10:18:02.888Z,1.17
2023-02-18T10:19:19.269Z,0.90
2023-02-18T10:20:26.840Z,0.90
2023-02-18T10:21:35.985Z,1.20
2023-02-18T10:22:38.638Z,1.20
2023-02-18T10:23:55.816Z,0.93
2023-02-18T10:25:03.921Z,1.60
2023-02-18T10:26:10.435Z,1.10
2023-02-18T10:27:20.189Z,0.93
2023-02-18T10:28:25.045Z,0.85
2023-02-18T10:29:30.314Z,0.85
2023-02-18T10:30:37.872Z,1.00
2023-02-18T10:31:46.931Z,1.10
2023-02-18T10:32:53.834Z,1.00
2023-02-18T10:34:03.986Z,1.60
2023-02-18T10:35:18.541Z,1.65
2023-02-18T10:36:30.178Z,1.00
2023-02-18T10:37:49.917Z,1.00
2023-02-18T10:39:15.113Z,1.10
2023-02-18T10:40:24.937Z,1.00
2023-02-18T10:41:35.031Z,1.23
2023-02-18T10:42:47.531Z,1.48
2023-02-18T10:43:59.817Z,1.00
2023-02-18T10:45:14.079Z,0.90
2023-02-18T10:46:26.532Z,1.25
2023-02-18T10:47:39.635Z,0.80
2023-02-18T10:48:59.727Z,0.90
2023-02-18T10:50:06.748Z,1.20
2023-02-18T10:51:17.137Z,1.33
2023-02-18T10:52:22.170Z,1.05
2023-02-18T10:53:34.417Z,0.85
2023-02-18T10:54:55.072Z,1.55
2023-02-18T10:55:59.710Z,0.90
2023-02-18T10:57:04.812Z,1.00
2023-02-18T10:58:26.803Z,1.10
2023-02-18T10:59:34.203Z,1.15
2023-02-18T11:00:40.371Z,1.10
2023-02-18T11:01:45.464Z,1.10
2023-02-18T11:03:00.899Z,1.00
2023-02-18T11:04:12.859Z,0.82
2023-02-18T11:05:24.274Z,1.00
2023-02-18T11:06:33.839Z,1.05
2023-02-18T11:07:49.697Z,1.10
2023-02-18T11:08:54.837Z,1.00
2023-02-18T11:09:59.735Z,1.23
2023-02-18T11:11:13.709Z,0.93
2023-02-18T11:12:20.369Z,1.08
2023-02-18T11:13:28.672Z,0.80
2023-02-18T11:14:43.188Z,1.10
2023-02-18T11:15:58.186Z,0.90
2023-02-18T11:17:10.587Z,0.90
2023-02-18T11:18:16.767Z,1.20
2023-02-18T11:19:20.293Z,1.10
2023-02-18T11:20:31.352Z,1.00
2023-02-18T11:21:37.208Z,1.20
2023-02-18T11:22:41.566Z,1.40
2023-02-18T11:23:48.590Z,1.00
2023-02-18T11:24:56.393Z,0.80
2023-02-18T11:26:05.445Z,1.00
2023-02-18T11:27:13.021Z,0.90
2023-02-18T11:28:29.841Z,0.85
2023-02-18T11:29:34.424Z,1.10
2023-02-18T11:30:40.198Z,0.98
2023-02-18T11:31:45.309Z,1.00
2023-02-18T11:32:51.611Z,0.93
2023-02-18T11:33:57.497Z,1.05
2023-02-18T11:35:01.028Z,0.60
2023-02-18T11:36:17.298Z,1.17
2023-02-18T11:37:24.099Z,1.15
2023-02-18T11:38:28.800Z,1.00
2023-02-18T11:39:32.549Z,1.20
2023-02-18T11:40:36.655Z,1.20
2023-02-18T11:41:44.626Z,1.02
2023-02-18T11:42:47.832Z,1.40
2023-02-18T11:43:52.128Z,1.05
2023-02-18T11:44:57.499Z,1.00
2023-02-18T11:46:10.458Z,1.00
2023-02-18T11:47:24.318Z,1.10
2023-02-18T11:48:26.667Z,1.00
2023-02-18T11:49:30.952Z,0.90
2023-02-18T11:50:35.960Z,1.08
2023-02-18T11:51:40.614Z,1.40
2023-02-18T11:52:47.491Z,1.05
2023-02-18T11:54:02.594Z,0.90
2023-02-18T11:55:06.907Z,1.20
2023-02-18T11:56:20.454Z,0.90
2023-02-18T11:57:26.512Z,1.40
2023-02-18T11:58:39.036Z,1.00
2023-02-18T11:59:44.384Z,1.00
2023-02-18T12:00:51.501Z,1.58
2023-02-18T12:02:01.385Z,0.80
2023-02-18T12:03:08.284Z,1.00
2023-02-18T12:04:14.613Z,1.08
2023-02-18T12:05:21.372Z,0.90
2023-02-18T12:06:29.193Z,1.13
2023-02-18T12:07:43.594Z,1.02
2023-02-18T12:08:52.669Z,0.88
2023-02-18T12:09:58.199Z,0.95
2023-02-18T12:11:05.210Z,1.00
2023-02-18T12:12:13.387Z,0.90
2023-02-18T12:13:26.207Z,0.90
2023-02-18T12:14:29.526Z,0.82
2023-02-18T12:15:53.543Z,0.95
2023-02-18T12:17:22.964Z,0.80
2023-02-18T12:18:58.906Z,0.80
2023-02-18T12:20:24.273Z,0.90
2023-02-18T12:21:43.444Z,1.02
2023-02-18T12:22:51.350Z,1.00
2023-02-18T12:24:05.361Z,0.90
2023-02-18T12:25:23.986Z,1.10
2023-02-18T12:26:30.017Z,0.90
2023-02-18T12:27:42.359Z,1.48
2023-02-18T12:29:04.150Z,1.00
2023-02-18T12:30:40.303Z,0.70
2023-02-18T12:32:06.005Z,1.25
2023-02-18T12:33:17.187Z,1.95
2023-02-18T12:34:39.985Z,1.00
2023-02-18T12:36:03.950Z,1.00
2023-02-18T12:37:23.901Z,1.13
2023-02-18T12:39:03.746Z,0.90
2023-02-18T12:40:43.618Z,0.80
2023-02-18T12:42:05.224Z,1.20
2023-02-18T12:43:13.555Z,1.00
2023-02-18T12:44:37.584Z,1.30
2023-02-18T12:45:56.574Z,1.00
2023-02-18T12:47:29.340Z,1.20
2023-02-18T12:49:00.665Z,1.10
2023-02-18T12:50:30.976Z,0.90
2023-02-18T12:51:47.056Z,1.10
2023-02-18T12:53:04.892Z,0.90
2023-02-18T12:54:24.722Z,1.10
2023-02-18T12:55:41.137Z,1.00
2023-02-18T12:57:08.144Z,1.00
2023-02-18T12:58:29.750Z,1.23
2023-02-18T12:59:55.338Z,1.00
2023-02-18T13:01:23.516Z,1.10
2023-02-18T13:02:52.677Z,1.20
2023-02-18T13:04:26.938Z,1.20
2023-02-18T13:05:39.017Z,1.20
2023-02-18T13:07:25.838Z,1.00
2023-02-18T13:09:06.849Z,0.80
2023-02-18T13:10:29.974Z,0.80
2023-02-18T13:11:43.092Z,0.95
2023-02-18T13:12:51.674Z,1.20
2023-02-18T13:14:05.336Z,0.88
2023-02-18T13:15:20.754Z,0.90
2023-02-18T13:16:24.434Z,1.00
2023-02-18T13:17:33.927Z,1.10
2023-02-18T13:18:41.880Z,1.15
2023-02-18T13:19:49.599Z,1.15
2023-02-18T13:20:55.570Z,0.80
2023-02-18T13:22:04.373Z,1.00
2023-02-18T13:23:10.172Z,0.90
2023-02-18T13:24:14.285Z,0.80
2023-02-18T13:25:19.864Z,0.90
2023-02-18T13:26:23.072Z,1.35
2023-02-18T13:27:32.628Z,1.00
2023-02-18T13:28:43.107Z,1.23
2023-02-18T13:29:52.427Z,1.20
2023-02-18T13:31:06.581Z,1.08
2023-02-18T13:32:19.311Z,1.02
2023-02-18T13:33:30.414Z,0.95
2023-02-18T13:34:39.533Z,0.90
2023-02-18T13:35:48.158Z,1.05
2023-02-18T13:37:03.954Z,1.02
2023-02-18T13:38:38.643Z,1.27
2023-02-18T13:39:48.531Z,1.02
2023-02-18T13:40:52.274Z,1.27
2023-02-18T13:42:13.376Z,1.20
2023-02-18T13:43:22.280Z,1.00
2023-02-18T13:44:58.934Z,1.10
2023-02-18T13:46:15.652Z,0.90
2023-02-18T13:47:37.215Z,1.00
2023-02-18T13:48:45.834Z,0.90
2023-02-18T13:49:48.921Z,1.20
2023-02-18T13:50:55.321Z,0.80
2023-02-18T13:52:01.198Z,1.40
2023-02-18T13:53:25.639Z,1.13
2023-02-18T13:54:31.665Z,1.05
2023-02-18T13:55:39.657Z,0.82
2023-02-18T13:56:46.869Z,1.15
2023-02-18T13:57:53.506Z,0.80
2023-02-18T13:59:01.752Z,0.82
2023-02-18T14:00:15.614Z,1.13
2023-02-18T14:01:26.174Z,1.17
2023-02-18T14:02:34.619Z,1.10
2023-02-18T14:03:52.299Z,1.02
2023-02-18T14:04:56.771Z,1.10
2023-02-18T14:05:59.558Z,1.45
2023-02-18T14:07:26.686Z,0.80
2023-02-18T14:08:36.326Z,0.98
2023-02-18T14:09:43.435Z,1.20
2023-02-18T14:11:34.599Z,1.15
2023-02-18T14:12:40.350Z,1.10
2023-02-18T14:13:44.411Z,0.93
2023-02-18T14:14:47.797Z,1.10
2023-02-18T14:16:02.210Z,0.90
2023-02-18T14:17:35.297Z,0.90
2023-02-18T14:19:00.480Z,0.85
2023-02-18T14:20:46.839Z,0.98
2023-02-18T14:21:50.016Z,0.90
2023-02-18T14:22:53.128Z,1.50
2023-02-18T14:24:02.059Z,1.30
2023-02-18T14:25:16.936Z,1.20
2023-02-18T14:26:28.568Z,1.27
2023-02-18T14:27:31.096Z,1.40
2023-02-18T14:28:41.780Z,1.30
2023-02-18T14:29:45.011Z,1.20
2023-02-18T14:30:47.638Z,1.02
2023-02-18T14:31:54.661Z,1.00
2023-02-18T14:33:01.332Z,1.10
2023-02-18T14:34:26.100Z,1.67
2023-02-18T14:35:36.028Z,1.23
2023-02-18T14:36:46.470Z,1.10
2023-02-18T14:38:09.484Z,1.20
2023-02-18T14:39:29.614Z,1.40
2023-02-18T14:40:50.025Z,1.02
2023-02-18T14:42:00.298Z,1.00
2023-02-18T14:43:10.789Z,1.27
2023-02-18T14:44:37.355Z,1.10
2023-02-18T14:46:01.500Z,1.30
2023-02-18T14:47:17.787Z,1.25
2023-02-18T14:48:41.284Z,1.10
2023-02-18T14:49:46.410Z,1.10
2023-02-18T14:50:52.958Z,1.20
2023-02-18T14:51:57.394Z,1.23
2023-02-18T14:53:05.400Z,1.20
2023-02-18T14:54:14.311Z,1.25
2023-02-18T14:55:20.398Z,1.13